Aérodrome :
LOGIN :

S'inscrire | Disclaimer

   EN    FR    IT 

 










Légende :    VFR   VFR Marginal   IFR   IFR Intensif   IFR Très Intensif
Visi : 
Plafond : 
>= 8 km
>= 3000ft
5 à 8 km
1000 à 3000 ft
1500m à 5 km
500 à 1000 ft
800 à 1500m
200 à 500 ft
< 800m
< 200 ft
Symboles :   Orages  Brouillard  Fortes neiges  Fortes précipitations  Vent > 20 kt
SIGMETs :   Divers  Orages  Givrage  Turbulence  Onde Orograph.  Cendres Volcan.







- Altitude de l'aérodrome : 461 ft
- Code IATA : WIE


ETOU - Wiesbaden Army

DERNIER METAR :
  • 211756Z AUTO 00000KT 9999 OVC055 10/05 A3037 RMK AO2 SLP292 P0000 60000 T01020048 10119 20080 $

METARs EXPIRÉS :
  • 211721Z 00000KT 9999SM BKN050 10/06 A3036
  • 211556Z AUTO 18003KT 9999 FEW040 OVC075 11/05 A3034 RMK AO2 SLP281 T01140048 $

TAF TAF ETOU
Valide du 21 à 12h jusqu'au 22 à 18h UTC


211201Z 2112/2218 27006KT 9999 SCT040 BKN060 QNH3036INS
BECMG 2201/2202 28006KT 8000 BR SCT010 BKN015 QNH3040INS
BECMG 2208/2209 23006KT 9999 NSW SCT015 BKN030 QNH3051INS TX11/2114Z TN03/2202Z
Pas de NOTAMs connus pour ce terrain.



MET'MAP, la Météo Aéronautique d'un coup d'oeil ! - Copyright ORBIFLY Décembre 2007 - Disclaimer

ORBIFLY MET'MAP TEAM :

Programmation & Développement : Alexandra Zaïnal
Conception & Développement : Baudouin d'Aumeries
Co-Programmation & Développement : Marc-Olivier Méhu
Soutien technique & logistique : Manuel Goepfert

Contact : metmap@orbifly.com




SOURCES & CREDITS :

   NOAA